CST,Max TemperatureF,Mean TemperatureF,Min TemperatureF,Max Dew PointF,MeanDew PointF,Min DewpointF,Max Humidity, Mean Humidity, Min Humidity, Max Sea Level PressureIn, Mean Sea Level PressureIn, Min Sea Level PressureIn, Max VisibilityMiles, Mean VisibilityMiles, Min VisibilityMiles, Max Wind SpeedMPH, Mean Wind SpeedMPH, Max Gust SpeedMPH,PrecipitationIn, CloudCover, Events, WindDirDegrees
2013-1-1,41,36,28,41,37,25,100,96,86,30.23,30.10,30.03,10,7,1,10,4,,0.00,7,Rain,352
2013-1-2,35,29,23,25,22,18,93,80,52,30.29,30.25,30.21,10,10,8,8,5,,0.00,3,,347
2013-1-3,42,30,19,30,25,19,100,84,57,30.44,30.36,30.27,10,10,9,10,1,,0.00,0,,312
2013-1-4,48,36,24,30,28,25,100,78,46,30.50,30.43,30.40,10,9,5,9,1,,0.00,1,,255
2013-1-5,46,35,24,37,30,25,100,84,57,30.41,30.34,30.27,10,10,8,7,1,,0.00,4,,183
2013-1-6,51,42,28,37,34,27,100,85,50,30.39,30.28,30.23,10,7,0,14,4,,0.00,3,Fog,240
2013-1-7,50,37,24,28,26,23,100,75,40,30.45,30.35,30.22,10,10,9,9,2,,0.00,0,,64
2013-1-8,57,42,28,39,32,25,93,71,44,30.28,30.21,30.17,10,10,10,7,2,,0.00,4,,108
2013-1-9,55,52,48,54,50,41,100,96,71,30.37,30.29,30.23,10,6,2,10,2,,0.00,8,Rain,53
2013-1-10,69,61,53,64,59,54,100,97,78,30.28,30.10,29.90,10,8,2,15,9,,0.00,8,Rain,120
2013-1-11,66,60,53,61,53,48,100,81,52,30.04,29.98,29.94,10,10,10,12,8,,0.00,4,,188
2013-1-12,71,68,64,68,65,63,100,91,78,29.96,29.87,29.72,10,8,3,16,7,,0.00,7,Rain,159
2013-1-13,69,50,30,64,41,27,100,95,81,30.29,30.00,29.77,10,6,2,22,12,,0.00,7,Rain,339
2013-1-14,28,26,24,25,22,21,86,81,74,30.43,30.32,30.28,10,10,3,16,11,,0.00,7,Snow,4
2013-1-15,30,27,24,30,25,21,100,91,80,30.29,30.18,30.10,10,7,2,15,8,,0.00,6,Rain,8
2013-1-16,33,30,28,30,29,27,100,93,81,30.19,30.13,30.07,10,9,4,8,4,,0.00,8,,336
2013-1-17,46,38,30,37,30,27,93,78,66,30.49,30.25,30.12,10,10,10,12,5,,0.00,4,,326
2013-1-18,53,40,26,30,27,25,100,72,33,30.58,30.48,30.35,10,10,8,6,2,,0.00,0,,137
2013-1-19,57,44,30,37,32,27,87,66,38,30.34,30.27,30.17,10,10,10,14,3,,0.00,1,,188
2013-1-20,57,47,35,36,32,23,87,62,33,30.28,30.21,30.18,10,10,10,9,4,,0.00,0,,335
2013-1-21,39,32,26,25,20,18,80,62,42,30.37,30.29,30.20,10,10,10,13,7,,0.00,1,,360
2013-1-22,35,29,23,19,16,10,80,60,38,30.45,30.37,30.33,10,10,10,9,3,,0.00,3,,48
2013-1-23,55,39,23,37,27,16,93,70,47,30.36,30.28,30.18,10,10,10,9,2,,0.00,2,,151
2013-1-24,42,37,32,39,23,18,93,59,45,30.46,30.33,30.22,10,10,10,10,7,,0.00,6,,42
2013-1-25,44,37,30,37,31,23,100,77,52,30.26,30.16,30.04,10,9,2,10,5,,0.00,7,Rain,95
2013-1-26,51,40,28,36,31,28,100,79,44,30.35,30.29,30.26,10,6,2,5,1,,0.00,5,,56
2013-1-27,64,54,44,54,42,34,82,69,59,30.27,30.20,30.12,10,10,10,12,5,,0.00,6,,117
2013-1-28,73,65,57,61,56,54,94,77,64,30.16,30.10,30.05,10,10,4,14,9,,0.00,6,,165
2013-1-29,75,68,60,66,61,57,100,80,61,30.03,29.82,29.48,10,10,1,28,11,41,0.00,6,Rain,161
2013-1-30,55,44,33,54,44,25,100,84,57,30.04,29.67,29.53,10,8,3,23,9,34,0.00,7,Rain,230
2013-1-31,53,40,28,36,27,23,87,71,43,30.31,30.11,30.04,10,10,7,16,7,,0.00,1,Snow,249